sensor_id;sensor_type;location;lat;lon;timestamp;P1;durP1;ratioP1;P2;durP2;ratioP2
31734;SDS011;18313;48.518;9.124;2022-12-07T00:01:22;7.43;;;4.97;;
31734;SDS011;18313;48.518;9.124;2022-12-07T00:04:16;7.82;;;5.10;;
31734;SDS011;18313;48.518;9.124;2022-12-07T00:07:02;8.45;;;5.30;;
31734;SDS011;18313;48.518;9.124;2022-12-07T00:09:49;8.50;;;5.30;;
31734;SDS011;18313;48.518;9.124;2022-12-07T00:12:34;9.93;;;5.75;;
31734;SDS011;18313;48.518;9.124;2022-12-07T00:15:19;10.40;;;5.57;;
31734;SDS011;18313;48.518;9.124;2022-12-07T00:18:05;7.93;;;5.18;;
31734;SDS011;18313;48.518;9.124;2022-12-07T00:20:51;8.55;;;5.40;;
31734;SDS011;18313;48.518;9.124;2022-12-07T00:23:37;8.32;;;5.15;;
31734;SDS011;18313;48.518;9.124;2022-12-07T00:26:24;8.52;;;5.55;;
31734;SDS011;18313;48.518;9.124;2022-12-07T00:29:18;8.75;;;5.53;;
31734;SDS011;18313;48.518;9.124;2022-12-07T00:32:05;8.40;;;4.82;;
31734;SDS011;18313;48.518;9.124;2022-12-07T00:34:50;7.35;;;5.05;;
31734;SDS011;18313;48.518;9.124;2022-12-07T00:37:36;7.60;;;4.72;;
31734;SDS011;18313;48.518;9.124;2022-12-07T00:40:21;8.32;;;4.90;;
31734;SDS011;18313;48.518;9.124;2022-12-07T00:43:07;7.25;;;4.80;;
31734;SDS011;18313;48.518;9.124;2022-12-07T00:45:53;9.07;;;5.75;;
31734;SDS011;18313;48.518;9.124;2022-12-07T00:48:39;9.98;;;5.80;;
31734;SDS011;18313;48.518;9.124;2022-12-07T00:51:25;9.40;;;5.43;;
31734;SDS011;18313;48.518;9.124;2022-12-07T00:54:11;6.60;;;4.45;;
31734;SDS011;18313;48.518;9.124;2022-12-07T00:56:57;7.28;;;4.88;;
31734;SDS011;18313;48.518;9.124;2022-12-07T00:59:42;7.68;;;4.95;;
31734;SDS011;18313;48.518;9.124;2022-12-07T01:02:28;7.47;;;4.60;;
31734;SDS011;18313;48.518;9.124;2022-12-07T01:05:13;10.15;;;5.05;;
31734;SDS011;18313;48.518;9.124;2022-12-07T01:07:59;13.18;;;6.63;;
31734;SDS011;18313;48.518;9.124;2022-12-07T01:10:44;15.45;;;7.63;;
31734;SDS011;18313;48.518;9.124;2022-12-07T01:13:30;11.38;;;6.70;;
31734;SDS011;18313;48.518;9.124;2022-12-07T01:16:16;17.90;;;8.70;;
31734;SDS011;18313;48.518;9.124;2022-12-07T01:19:02;16.70;;;8.20;;
31734;SDS011;18313;48.518;9.124;2022-12-07T01:21:49;12.45;;;7.45;;
31734;SDS011;18313;48.518;9.124;2022-12-07T01:24:35;13.93;;;7.30;;
31734;SDS011;18313;48.518;9.124;2022-12-07T01:27:20;11.68;;;6.32;;
31734;SDS011;18313;48.518;9.124;2022-12-07T01:30:06;11.93;;;7.05;;
31734;SDS011;18313;48.518;9.124;2022-12-07T01:32:52;15.25;;;8.15;;
31734;SDS011;18313;48.518;9.124;2022-12-07T01:35:37;13.52;;;7.47;;
31734;SDS011;18313;48.518;9.124;2022-12-07T01:38:23;12.60;;;7.72;;
31734;SDS011;18313;48.518;9.124;2022-12-07T01:41:08;15.20;;;7.90;;
31734;SDS011;18313;48.518;9.124;2022-12-07T01:47:02;15.65;;;8.50;;
31734;SDS011;18313;48.518;9.124;2022-12-07T01:49:48;14.75;;;8.00;;
31734;SDS011;18313;48.518;9.124;2022-12-07T01:52:34;12.77;;;6.95;;
31734;SDS011;18313;48.518;9.124;2022-12-07T01:55:22;10.70;;;6.15;;
31734;SDS011;18313;48.518;9.124;2022-12-07T01:58:08;9.52;;;5.63;;
31734;SDS011;18313;48.518;9.124;2022-12-07T02:00:55;8.73;;;5.20;;
31734;SDS011;18313;48.518;9.124;2022-12-07T02:03:41;8.52;;;5.20;;
31734;SDS011;18313;48.518;9.124;2022-12-07T02:06:28;9.07;;;5.65;;
31734;SDS011;18313;48.518;9.124;2022-12-07T02:09:15;8.48;;;5.15;;
31734;SDS011;18313;48.518;9.124;2022-12-07T02:12:01;7.05;;;5.05;;
31734;SDS011;18313;48.518;9.124;2022-12-07T02:14:47;7.85;;;5.22;;
31734;SDS011;18313;48.518;9.124;2022-12-07T02:30:10;9.57;;;5.25;;
31734;SDS011;18313;48.518;9.124;2022-12-07T02:33:05;10.02;;;5.13;;
31734;SDS011;18313;48.518;9.124;2022-12-07T02:35:59;7.45;;;5.20;;
31734;SDS011;18313;48.518;9.124;2022-12-07T02:39:17;8.27;;;4.80;;
31734;SDS011;18313;48.518;9.124;2022-12-07T02:42:09;9.25;;;5.60;;
31734;SDS011;18313;48.518;9.124;2022-12-07T02:45:00;8.32;;;5.28;;
31734;SDS011;18313;48.518;9.124;2022-12-07T02:47:48;9.45;;;5.65;;
31734;SDS011;18313;48.518;9.124;2022-12-07T02:50:37;8.77;;;5.45;;
31734;SDS011;18313;48.518;9.124;2022-12-07T02:53:30;8.82;;;5.60;;
31734;SDS011;18313;48.518;9.124;2022-12-07T02:56:39;9.68;;;6.05;;
31734;SDS011;18313;48.518;9.124;2022-12-07T02:59:51;10.63;;;6.90;;
31734;SDS011;18313;48.518;9.124;2022-12-07T03:02:55;10.48;;;6.85;;
31734;SDS011;18313;48.518;9.124;2022-12-07T03:08:50;10.73;;;6.82;;
31734;SDS011;18313;48.518;9.124;2022-12-07T03:12:08;13.52;;;7.90;;
31734;SDS011;18313;48.518;9.124;2022-12-07T03:15:02;11.35;;;7.05;;
31734;SDS011;18313;48.518;9.124;2022-12-07T03:17:55;9.18;;;5.30;;
31734;SDS011;18313;48.518;9.124;2022-12-07T03:20:43;9.52;;;6.15;;
31734;SDS011;18313;48.518;9.124;2022-12-07T03:23:30;11.48;;;6.70;;
31734;SDS011;18313;48.518;9.124;2022-12-07T03:26:19;8.93;;;5.90;;
31734;SDS011;18313;48.518;9.124;2022-12-07T03:29:11;10.88;;;5.43;;
31734;SDS011;18313;48.518;9.124;2022-12-07T03:32:05;7.90;;;5.20;;
31734;SDS011;18313;48.518;9.124;2022-12-07T03:38:11;9.20;;;5.80;;
31734;SDS011;18313;48.518;9.124;2022-12-07T03:41:23;8.93;;;5.65;;
31734;SDS011;18313;48.518;9.124;2022-12-07T03:44:11;9.10;;;5.13;;
31734;SDS011;18313;48.518;9.124;2022-12-07T03:49:59;8.30;;;5.22;;
31734;SDS011;18313;48.518;9.124;2022-12-07T03:56:05;9.77;;;5.93;;
31734;SDS011;18313;48.518;9.124;2022-12-07T03:58:53;8.25;;;5.35;;
31734;SDS011;18313;48.518;9.124;2022-12-07T04:01:41;7.88;;;5.25;;
31734;SDS011;18313;48.518;9.124;2022-12-07T04:04:29;9.00;;;5.22;;
31734;SDS011;18313;48.518;9.124;2022-12-07T04:07:15;8.70;;;5.32;;
31734;SDS011;18313;48.518;9.124;2022-12-07T04:10:02;9.00;;;6.03;;
31734;SDS011;18313;48.518;9.124;2022-12-07T04:12:48;11.05;;;6.15;;
31734;SDS011;18313;48.518;9.124;2022-12-07T04:15:34;8.88;;;5.97;;
31734;SDS011;18313;48.518;9.124;2022-12-07T04:18:20;10.52;;;6.25;;
31734;SDS011;18313;48.518;9.124;2022-12-07T04:21:05;8.25;;;5.68;;
31734;SDS011;18313;48.518;9.124;2022-12-07T04:23:51;10.07;;;6.15;;
31734;SDS011;18313;48.518;9.124;2022-12-07T04:26:36;8.30;;;5.43;;
31734;SDS011;18313;48.518;9.124;2022-12-07T04:29:22;8.02;;;4.95;;
31734;SDS011;18313;48.518;9.124;2022-12-07T04:32:08;8.48;;;5.05;;
31734;SDS011;18313;48.518;9.124;2022-12-07T04:34:54;9.55;;;5.15;;
31734;SDS011;18313;48.518;9.124;2022-12-07T04:37:40;11.95;;;5.90;;
31734;SDS011;18313;48.518;9.124;2022-12-07T04:40:26;9.20;;;5.80;;
31734;SDS011;18313;48.518;9.124;2022-12-07T04:43:12;10.77;;;5.97;;
31734;SDS011;18313;48.518;9.124;2022-12-07T04:45:57;7.85;;;5.60;;
31734;SDS011;18313;48.518;9.124;2022-12-07T04:48:43;8.98;;;5.97;;
31734;SDS011;18313;48.518;9.124;2022-12-07T04:51:28;9.68;;;5.88;;
31734;SDS011;18313;48.518;9.124;2022-12-07T04:54:14;7.78;;;5.30;;
31734;SDS011;18313;48.518;9.124;2022-12-07T04:57:00;8.98;;;5.47;;
31734;SDS011;18313;48.518;9.124;2022-12-07T04:59:46;8.50;;;5.57;;
31734;SDS011;18313;48.518;9.124;2022-12-07T05:02:31;11.50;;;6.75;;
31734;SDS011;18313;48.518;9.124;2022-12-07T05:05:17;15.70;;;8.25;;
31734;SDS011;18313;48.518;9.124;2022-12-07T05:08:02;14.45;;;7.40;;
31734;SDS011;18313;48.518;9.124;2022-12-07T05:10:49;12.75;;;7.30;;
31734;SDS011;18313;48.518;9.124;2022-12-07T05:13:35;12.35;;;6.95;;
31734;SDS011;18313;48.518;9.124;2022-12-07T05:16:20;11.07;;;7.28;;
31734;SDS011;18313;48.518;9.124;2022-12-07T05:19:06;11.18;;;6.78;;
31734;SDS011;18313;48.518;9.124;2022-12-07T05:21:52;10.80;;;6.55;;
31734;SDS011;18313;48.518;9.124;2022-12-07T05:24:38;10.80;;;6.60;;
31734;SDS011;18313;48.518;9.124;2022-12-07T05:27:24;10.90;;;7.13;;
31734;SDS011;18313;48.518;9.124;2022-12-07T05:30:09;10.38;;;6.88;;
31734;SDS011;18313;48.518;9.124;2022-12-07T05:32:55;11.63;;;7.05;;
31734;SDS011;18313;48.518;9.124;2022-12-07T05:35:41;10.80;;;7.05;;
31734;SDS011;18313;48.518;9.124;2022-12-07T05:38:27;11.00;;;6.97;;
31734;SDS011;18313;48.518;9.124;2022-12-07T05:41:13;9.32;;;5.97;;
31734;SDS011;18313;48.518;9.124;2022-12-07T05:44:19;11.45;;;6.63;;
31734;SDS011;18313;48.518;9.124;2022-12-07T05:47:04;9.77;;;6.47;;
31734;SDS011;18313;48.518;9.124;2022-12-07T05:49:50;11.02;;;6.93;;
31734;SDS011;18313;48.518;9.124;2022-12-07T05:52:36;11.15;;;6.43;;
31734;SDS011;18313;48.518;9.124;2022-12-07T05:55:21;9.73;;;5.85;;
31734;SDS011;18313;48.518;9.124;2022-12-07T05:58:07;10.82;;;6.38;;
31734;SDS011;18313;48.518;9.124;2022-12-07T06:01:11;10.73;;;6.43;;
31734;SDS011;18313;48.518;9.124;2022-12-07T06:03:56;11.38;;;6.47;;
31734;SDS011;18313;48.518;9.124;2022-12-07T06:06:42;11.93;;;6.53;;
31734;SDS011;18313;48.518;9.124;2022-12-07T06:09:27;13.88;;;8.13;;
31734;SDS011;18313;48.518;9.124;2022-12-07T06:12:13;14.13;;;8.52;;
31734;SDS011;18313;48.518;9.124;2022-12-07T06:15:17;14.80;;;8.75;;
31734;SDS011;18313;48.518;9.124;2022-12-07T06:18:03;14.98;;;9.30;;
31734;SDS011;18313;48.518;9.124;2022-12-07T06:20:48;15.45;;;8.30;;
31734;SDS011;18313;48.518;9.124;2022-12-07T06:23:34;13.18;;;8.32;;
31734;SDS011;18313;48.518;9.124;2022-12-07T06:26:20;17.60;;;9.77;;
31734;SDS011;18313;48.518;9.124;2022-12-07T06:29:05;15.40;;;8.65;;
31734;SDS011;18313;48.518;9.124;2022-12-07T06:31:51;18.58;;;8.90;;
31734;SDS011;18313;48.518;9.124;2022-12-07T06:34:37;15.40;;;8.73;;
31734;SDS011;18313;48.518;9.124;2022-12-07T06:37:22;13.65;;;8.50;;
31734;SDS011;18313;48.518;9.124;2022-12-07T06:40:08;13.57;;;8.73;;
31734;SDS011;18313;48.518;9.124;2022-12-07T06:42:54;14.13;;;8.65;;
31734;SDS011;18313;48.518;9.124;2022-12-07T06:45:41;14.65;;;8.80;;
31734;SDS011;18313;48.518;9.124;2022-12-07T06:48:26;14.90;;;8.93;;
31734;SDS011;18313;48.518;9.124;2022-12-07T06:51:12;13.77;;;8.77;;
31734;SDS011;18313;48.518;9.124;2022-12-07T06:53:57;14.75;;;8.50;;
31734;SDS011;18313;48.518;9.124;2022-12-07T06:56:43;15.85;;;8.25;;
31734;SDS011;18313;48.518;9.124;2022-12-07T06:59:29;13.23;;;7.93;;
31734;SDS011;18313;48.518;9.124;2022-12-07T07:02:15;13.98;;;8.23;;
31734;SDS011;18313;48.518;9.124;2022-12-07T07:05:01;14.18;;;8.63;;
31734;SDS011;18313;48.518;9.124;2022-12-07T07:07:46;13.90;;;8.52;;
31734;SDS011;18313;48.518;9.124;2022-12-07T07:10:52;16.30;;;8.43;;
31734;SDS011;18313;48.518;9.124;2022-12-07T07:13:38;13.68;;;8.25;;
31734;SDS011;18313;48.518;9.124;2022-12-07T07:16:23;15.32;;;8.60;;
31734;SDS011;18313;48.518;9.124;2022-12-07T07:19:09;15.85;;;7.90;;
31734;SDS011;18313;48.518;9.124;2022-12-07T07:21:55;14.00;;;8.15;;
31734;SDS011;18313;48.518;9.124;2022-12-07T07:24:40;14.93;;;9.02;;
31734;SDS011;18313;48.518;9.124;2022-12-07T07:27:26;13.52;;;8.20;;
31734;SDS011;18313;48.518;9.124;2022-12-07T07:30:12;13.18;;;8.25;;
31734;SDS011;18313;48.518;9.124;2022-12-07T07:32:58;13.90;;;8.07;;
31734;SDS011;18313;48.518;9.124;2022-12-07T07:35:44;13.38;;;8.07;;
31734;SDS011;18313;48.518;9.124;2022-12-07T07:38:30;14.55;;;8.77;;
31734;SDS011;18313;48.518;9.124;2022-12-07T07:41:15;28.90;;;17.40;;
31734;SDS011;18313;48.518;9.124;2022-12-07T07:44:01;21.75;;;11.98;;
31734;SDS011;18313;48.518;9.124;2022-12-07T07:46:46;12.88;;;7.97;;
31734;SDS011;18313;48.518;9.124;2022-12-07T07:49:32;13.43;;;8.30;;
31734;SDS011;18313;48.518;9.124;2022-12-07T07:52:17;15.15;;;8.20;;
31734;SDS011;18313;48.518;9.124;2022-12-07T07:55:03;15.23;;;7.65;;
31734;SDS011;18313;48.518;9.124;2022-12-07T07:57:49;14.88;;;8.23;;
31734;SDS011;18313;48.518;9.124;2022-12-07T08:00:38;13.27;;;8.05;;
31734;SDS011;18313;48.518;9.124;2022-12-07T08:03:24;13.05;;;7.82;;
31734;SDS011;18313;48.518;9.124;2022-12-07T08:06:10;15.27;;;8.80;;
31734;SDS011;18313;48.518;9.124;2022-12-07T08:08:55;17.10;;;11.10;;
31734;SDS011;18313;48.518;9.124;2022-12-07T08:11:43;21.23;;;12.90;;
31734;SDS011;18313;48.518;9.124;2022-12-07T08:14:30;17.45;;;8.93;;
31734;SDS011;18313;48.518;9.124;2022-12-07T08:17:15;12.48;;;8.45;;
31734;SDS011;18313;48.518;9.124;2022-12-07T08:20:01;21.13;;;13.18;;
31734;SDS011;18313;48.518;9.124;2022-12-07T08:22:47;15.35;;;9.75;;
31734;SDS011;18313;48.518;9.124;2022-12-07T08:25:35;15.18;;;8.95;;
31734;SDS011;18313;48.518;9.124;2022-12-07T08:28:21;13.77;;;8.48;;
31734;SDS011;18313;48.518;9.124;2022-12-07T08:31:08;14.93;;;8.77;;
31734;SDS011;18313;48.518;9.124;2022-12-07T08:34:00;14.88;;;8.27;;
31734;SDS011;18313;48.518;9.124;2022-12-07T08:36:46;13.73;;;9.30;;
31734;SDS011;18313;48.518;9.124;2022-12-07T08:39:31;19.02;;;9.48;;
31734;SDS011;18313;48.518;9.124;2022-12-07T08:42:17;14.88;;;9.05;;
31734;SDS011;18313;48.518;9.124;2022-12-07T08:45:06;15.98;;;8.75;;
31734;SDS011;18313;48.518;9.124;2022-12-07T08:47:55;17.67;;;9.82;;
31734;SDS011;18313;48.518;9.124;2022-12-07T08:50:45;13.95;;;8.80;;
31734;SDS011;18313;48.518;9.124;2022-12-07T08:53:33;14.02;;;8.63;;
31734;SDS011;18313;48.518;9.124;2022-12-07T08:56:21;14.15;;;8.88;;
31734;SDS011;18313;48.518;9.124;2022-12-07T08:59:07;16.48;;;9.98;;
31734;SDS011;18313;48.518;9.124;2022-12-07T09:01:53;13.77;;;8.30;;
31734;SDS011;18313;48.518;9.124;2022-12-07T09:04:39;13.95;;;8.93;;
31734;SDS011;18313;48.518;9.124;2022-12-07T09:07:25;14.13;;;8.73;;
31734;SDS011;18313;48.518;9.124;2022-12-07T09:10:12;15.02;;;8.65;;
31734;SDS011;18313;48.518;9.124;2022-12-07T09:12:58;15.68;;;8.80;;
31734;SDS011;18313;48.518;9.124;2022-12-07T09:15:46;13.85;;;8.60;;
31734;SDS011;18313;48.518;9.124;2022-12-07T09:18:31;14.68;;;8.43;;
31734;SDS011;18313;48.518;9.124;2022-12-07T09:21:17;14.77;;;8.88;;
31734;SDS011;18313;48.518;9.124;2022-12-07T09:24:03;14.65;;;8.88;;
31734;SDS011;18313;48.518;9.124;2022-12-07T09:26:49;13.27;;;8.27;;
31734;SDS011;18313;48.518;9.124;2022-12-07T09:29:35;13.00;;;8.50;;
31734;SDS011;18313;48.518;9.124;2022-12-07T09:32:21;15.13;;;8.82;;
31734;SDS011;18313;48.518;9.124;2022-12-07T09:35:08;13.88;;;7.75;;
31734;SDS011;18313;48.518;9.124;2022-12-07T09:37:54;12.02;;;7.43;;
31734;SDS011;18313;48.518;9.124;2022-12-07T09:40:40;13.27;;;7.18;;
31734;SDS011;18313;48.518;9.124;2022-12-07T09:43:28;12.05;;;7.28;;
31734;SDS011;18313;48.518;9.124;2022-12-07T09:46:15;12.93;;;7.20;;
31734;SDS011;18313;48.518;9.124;2022-12-07T09:49:03;12.65;;;8.10;;
31734;SDS011;18313;48.518;9.124;2022-12-07T09:52:35;13.32;;;8.48;;
31734;SDS011;18313;48.518;9.124;2022-12-07T09:54:57;12.75;;;7.60;;
31734;SDS011;18313;48.518;9.124;2022-12-07T09:57:43;14.02;;;7.57;;
31734;SDS011;18313;48.518;9.124;2022-12-07T10:00:29;12.07;;;7.45;;
31734;SDS011;18313;48.518;9.124;2022-12-07T10:03:15;8.70;;;5.75;;
31734;SDS011;18313;48.518;9.124;2022-12-07T10:06:00;10.40;;;5.53;;
31734;SDS011;18313;48.518;9.124;2022-12-07T10:08:46;10.13;;;6.10;;
31734;SDS011;18313;48.518;9.124;2022-12-07T10:11:32;9.32;;;5.90;;
31734;SDS011;18313;48.518;9.124;2022-12-07T10:14:18;9.93;;;5.75;;
31734;SDS011;18313;48.518;9.124;2022-12-07T10:23:05;6.93;;;4.60;;
31734;SDS011;18313;48.518;9.124;2022-12-07T10:26:03;7.30;;;4.50;;
31734;SDS011;18313;48.518;9.124;2022-12-07T10:35:23;8.38;;;5.25;;
31734;SDS011;18313;48.518;9.124;2022-12-07T10:38:07;8.65;;;5.03;;
31734;SDS011;18313;48.518;9.124;2022-12-07T10:41:05;9.45;;;5.47;;
31734;SDS011;18313;48.518;9.124;2022-12-07T10:43:53;7.85;;;4.78;;
31734;SDS011;18313;48.518;9.124;2022-12-07T10:46:53;9.02;;;5.13;;
31734;SDS011;18313;48.518;9.124;2022-12-07T11:02:10;7.38;;;4.80;;
31734;SDS011;18313;48.518;9.124;2022-12-07T11:11:49;9.48;;;5.28;;
31734;SDS011;18313;48.518;9.124;2022-12-07T11:20:41;7.68;;;5.05;;
31734;SDS011;18313;48.518;9.124;2022-12-07T11:26:49;7.97;;;5.03;;
31734;SDS011;18313;48.518;9.124;2022-12-07T11:33:13;10.40;;;5.43;;
31734;SDS011;18313;48.518;9.124;2022-12-07T11:39:30;7.53;;;5.22;;
31734;SDS011;18313;48.518;9.124;2022-12-07T11:42:39;10.50;;;6.00;;
31734;SDS011;18313;48.518;9.124;2022-12-07T11:45:31;9.07;;;5.13;;
31734;SDS011;18313;48.518;9.124;2022-12-07T11:48:28;8.60;;;5.13;;
31734;SDS011;18313;48.518;9.124;2022-12-07T11:51:20;11.25;;;5.85;;
31734;SDS011;18313;48.518;9.124;2022-12-07T11:54:18;9.73;;;5.35;;
31734;SDS011;18313;48.518;9.124;2022-12-07T11:57:10;9.02;;;5.40;;
31734;SDS011;18313;48.518;9.124;2022-12-07T12:00:06;8.07;;;5.25;;
31734;SDS011;18313;48.518;9.124;2022-12-07T12:03:00;7.85;;;5.47;;
31734;SDS011;18313;48.518;9.124;2022-12-07T12:05:53;9.20;;;5.53;;
31734;SDS011;18313;48.518;9.124;2022-12-07T12:08:40;9.80;;;5.80;;
31734;SDS011;18313;48.518;9.124;2022-12-07T12:19:01;7.60;;;5.18;;
31734;SDS011;18313;48.518;9.124;2022-12-07T12:21:53;10.07;;;5.38;;
31734;SDS011;18313;48.518;9.124;2022-12-07T12:24:46;8.32;;;5.25;;
31734;SDS011;18313;48.518;9.124;2022-12-07T12:27:37;11.52;;;6.20;;
31734;SDS011;18313;48.518;9.124;2022-12-07T12:30:25;10.10;;;5.55;;
31734;SDS011;18313;48.518;9.124;2022-12-07T12:33:27;8.30;;;5.22;;
31734;SDS011;18313;48.518;9.124;2022-12-07T12:39:08;9.88;;;5.20;;
31734;SDS011;18313;48.518;9.124;2022-12-07T12:41:59;8.13;;;5.22;;
31734;SDS011;18313;48.518;9.124;2022-12-07T12:48:44;10.00;;;5.15;;
31734;SDS011;18313;48.518;9.124;2022-12-07T12:54:25;9.43;;;5.13;;
31734;SDS011;18313;48.518;9.124;2022-12-07T13:00:16;13.00;;;4.90;;
31734;SDS011;18313;48.518;9.124;2022-12-07T13:03:16;8.65;;;5.07;;
31734;SDS011;18313;48.518;9.124;2022-12-07T13:12:14;11.40;;;5.45;;
31734;SDS011;18313;48.518;9.124;2022-12-07T13:15:01;8.10;;;4.90;;
31734;SDS011;18313;48.518;9.124;2022-12-07T13:20:45;8.90;;;5.57;;
31734;SDS011;18313;48.518;9.124;2022-12-07T13:32:01;8.68;;;5.20;;
31734;SDS011;18313;48.518;9.124;2022-12-07T13:34:46;9.50;;;5.00;;
31734;SDS011;18313;48.518;9.124;2022-12-07T13:37:32;8.77;;;5.72;;
31734;SDS011;18313;48.518;9.124;2022-12-07T13:40:22;10.13;;;5.80;;
31734;SDS011;18313;48.518;9.124;2022-12-07T13:43:13;8.98;;;5.40;;
31734;SDS011;18313;48.518;9.124;2022-12-07T13:46:00;10.23;;;6.18;;
31734;SDS011;18313;48.518;9.124;2022-12-07T13:49:02;12.32;;;6.53;;
31734;SDS011;18313;48.518;9.124;2022-12-07T13:52:11;12.02;;;6.82;;
31734;SDS011;18313;48.518;9.124;2022-12-07T13:57:52;9.27;;;5.22;;
31734;SDS011;18313;48.518;9.124;2022-12-07T14:00:39;7.90;;;5.03;;
31734;SDS011;18313;48.518;9.124;2022-12-07T14:03:30;8.88;;;5.38;;
31734;SDS011;18313;48.518;9.124;2022-12-07T14:06:20;10.30;;;5.75;;
31734;SDS011;18313;48.518;9.124;2022-12-07T14:12:06;7.85;;;4.90;;
31734;SDS011;18313;48.518;9.124;2022-12-07T14:14:51;10.45;;;6.30;;
31734;SDS011;18313;48.518;9.124;2022-12-07T14:17:38;10.45;;;6.90;;
31734;SDS011;18313;48.518;9.124;2022-12-07T14:20:39;9.85;;;6.95;;
31734;SDS011;18313;48.518;9.124;2022-12-07T14:23:25;11.48;;;7.30;;
31734;SDS011;18313;48.518;9.124;2022-12-07T14:26:18;9.93;;;6.13;;
31734;SDS011;18313;48.518;9.124;2022-12-07T14:32:28;10.07;;;5.57;;
31734;SDS011;18313;48.518;9.124;2022-12-07T14:35:15;9.75;;;5.43;;
31734;SDS011;18313;48.518;9.124;2022-12-07T14:38:01;9.35;;;5.43;;
31734;SDS011;18313;48.518;9.124;2022-12-07T14:40:47;8.93;;;5.18;;
31734;SDS011;18313;48.518;9.124;2022-12-07T14:43:34;9.40;;;5.40;;
31734;SDS011;18313;48.518;9.124;2022-12-07T14:46:29;8.90;;;5.53;;
31734;SDS011;18313;48.518;9.124;2022-12-07T14:49:14;10.48;;;5.20;;
31734;SDS011;18313;48.518;9.124;2022-12-07T14:52:26;9.07;;;5.28;;
31734;SDS011;18313;48.518;9.124;2022-12-07T14:55:34;9.25;;;4.90;;
31734;SDS011;18313;48.518;9.124;2022-12-07T14:58:20;9.80;;;5.70;;
31734;SDS011;18313;48.518;9.124;2022-12-07T15:01:06;11.05;;;5.70;;
31734;SDS011;18313;48.518;9.124;2022-12-07T15:03:51;10.25;;;5.43;;
31734;SDS011;18313;48.518;9.124;2022-12-07T15:06:37;9.27;;;5.97;;
31734;SDS011;18313;48.518;9.124;2022-12-07T15:09:23;9.85;;;6.05;;
31734;SDS011;18313;48.518;9.124;2022-12-07T15:12:09;8.77;;;5.72;;
31734;SDS011;18313;48.518;9.124;2022-12-07T15:14:55;10.10;;;5.55;;
31734;SDS011;18313;48.518;9.124;2022-12-07T15:17:40;9.73;;;5.43;;
31734;SDS011;18313;48.518;9.124;2022-12-07T15:20:25;9.50;;;5.35;;
31734;SDS011;18313;48.518;9.124;2022-12-07T15:23:11;9.13;;;5.90;;
31734;SDS011;18313;48.518;9.124;2022-12-07T15:25:57;9.57;;;6.18;;
31734;SDS011;18313;48.518;9.124;2022-12-07T15:28:42;9.15;;;5.53;;
31734;SDS011;18313;48.518;9.124;2022-12-07T15:31:28;9.68;;;5.90;;
31734;SDS011;18313;48.518;9.124;2022-12-07T15:37:24;16.73;;;8.80;;
31734;SDS011;18313;48.518;9.124;2022-12-07T15:40:10;20.92;;;10.48;;
31734;SDS011;18313;48.518;9.124;2022-12-07T15:42:57;15.30;;;8.98;;
31734;SDS011;18313;48.518;9.124;2022-12-07T15:45:42;19.92;;;9.85;;
31734;SDS011;18313;48.518;9.124;2022-12-07T15:48:28;17.25;;;9.50;;
31734;SDS011;18313;48.518;9.124;2022-12-07T15:51:13;21.20;;;9.82;;
31734;SDS011;18313;48.518;9.124;2022-12-07T15:54:07;20.88;;;11.25;;
31734;SDS011;18313;48.518;9.124;2022-12-07T15:56:53;19.52;;;9.10;;
31734;SDS011;18313;48.518;9.124;2022-12-07T15:59:40;14.65;;;6.93;;
31734;SDS011;18313;48.518;9.124;2022-12-07T16:02:25;15.30;;;6.15;;
31734;SDS011;18313;48.518;9.124;2022-12-07T16:05:11;10.60;;;5.55;;
31734;SDS011;18313;48.518;9.124;2022-12-07T16:07:56;12.32;;;5.35;;
31734;SDS011;18313;48.518;9.124;2022-12-07T16:10:42;10.27;;;5.60;;
31734;SDS011;18313;48.518;9.124;2022-12-07T16:13:28;9.43;;;5.68;;
31734;SDS011;18313;48.518;9.124;2022-12-07T16:16:14;8.27;;;4.85;;
31734;SDS011;18313;48.518;9.124;2022-12-07T16:19:02;9.98;;;4.70;;
31734;SDS011;18313;48.518;9.124;2022-12-07T16:21:47;9.07;;;5.47;;
31734;SDS011;18313;48.518;9.124;2022-12-07T16:24:33;7.30;;;4.70;;
31734;SDS011;18313;48.518;9.124;2022-12-07T16:27:19;8.48;;;5.00;;
31734;SDS011;18313;48.518;9.124;2022-12-07T16:30:04;8.57;;;4.93;;
31734;SDS011;18313;48.518;9.124;2022-12-07T16:32:51;8.95;;;5.22;;
31734;SDS011;18313;48.518;9.124;2022-12-07T16:35:41;8.15;;;4.80;;
31734;SDS011;18313;48.518;9.124;2022-12-07T16:38:27;8.85;;;4.53;;
31734;SDS011;18313;48.518;9.124;2022-12-07T16:41:12;7.38;;;4.65;;
31734;SDS011;18313;48.518;9.124;2022-12-07T16:44:02;7.65;;;4.65;;
31734;SDS011;18313;48.518;9.124;2022-12-07T16:46:52;8.27;;;5.22;;
31734;SDS011;18313;48.518;9.124;2022-12-07T16:49:38;8.98;;;5.22;;
31734;SDS011;18313;48.518;9.124;2022-12-07T16:52:23;9.18;;;5.32;;
31734;SDS011;18313;48.518;9.124;2022-12-07T16:55:09;10.07;;;6.65;;
31734;SDS011;18313;48.518;9.124;2022-12-07T16:57:54;14.48;;;7.07;;
31734;SDS011;18313;48.518;9.124;2022-12-07T17:00:41;10.93;;;6.00;;
31734;SDS011;18313;48.518;9.124;2022-12-07T17:03:27;14.50;;;6.03;;
31734;SDS011;18313;48.518;9.124;2022-12-07T17:06:13;11.75;;;7.10;;
31734;SDS011;18313;48.518;9.124;2022-12-07T17:09:07;20.75;;;12.23;;
31734;SDS011;18313;48.518;9.124;2022-12-07T17:11:54;30.60;;;14.70;;
31734;SDS011;18313;48.518;9.124;2022-12-07T17:14:40;23.13;;;11.25;;
31734;SDS011;18313;48.518;9.124;2022-12-07T17:17:45;29.90;;;13.10;;
31734;SDS011;18313;48.518;9.124;2022-12-07T17:20:35;24.83;;;11.25;;
31734;SDS011;18313;48.518;9.124;2022-12-07T17:23:21;19.45;;;10.43;;
31734;SDS011;18313;48.518;9.124;2022-12-07T17:26:07;23.48;;;11.55;;
31734;SDS011;18313;48.518;9.124;2022-12-07T17:28:58;25.33;;;9.68;;
31734;SDS011;18313;48.518;9.124;2022-12-07T17:31:45;26.95;;;12.43;;
31734;SDS011;18313;48.518;9.124;2022-12-07T17:34:35;19.33;;;9.68;;
31734;SDS011;18313;48.518;9.124;2022-12-07T17:37:21;16.48;;;9.40;;
31734;SDS011;18313;48.518;9.124;2022-12-07T17:40:07;24.02;;;11.15;;
31734;SDS011;18313;48.518;9.124;2022-12-07T17:42:53;24.67;;;10.68;;
31734;SDS011;18313;48.518;9.124;2022-12-07T17:45:39;20.05;;;9.85;;
31734;SDS011;18313;48.518;9.124;2022-12-07T17:48:25;18.00;;;9.57;;
31734;SDS011;18313;48.518;9.124;2022-12-07T17:51:11;22.98;;;10.80;;
31734;SDS011;18313;48.518;9.124;2022-12-07T17:54:15;25.70;;;11.82;;
31734;SDS011;18313;48.518;9.124;2022-12-07T17:57:01;20.15;;;10.00;;
31734;SDS011;18313;48.518;9.124;2022-12-07T17:59:47;21.92;;;11.10;;
31734;SDS011;18313;48.518;9.124;2022-12-07T18:02:32;19.25;;;10.13;;
31734;SDS011;18313;48.518;9.124;2022-12-07T18:05:18;16.38;;;9.57;;
31734;SDS011;18313;48.518;9.124;2022-12-07T18:08:04;18.88;;;10.50;;
31734;SDS011;18313;48.518;9.124;2022-12-07T18:10:56;18.20;;;9.40;;
31734;SDS011;18313;48.518;9.124;2022-12-07T18:13:43;14.40;;;8.77;;
31734;SDS011;18313;48.518;9.124;2022-12-07T18:16:30;17.00;;;9.35;;
31734;SDS011;18313;48.518;9.124;2022-12-07T18:19:19;13.95;;;8.85;;
31734;SDS011;18313;48.518;9.124;2022-12-07T18:22:05;21.25;;;12.60;;
31734;SDS011;18313;48.518;9.124;2022-12-07T18:24:50;26.85;;;14.77;;
31734;SDS011;18313;48.518;9.124;2022-12-07T18:27:36;14.40;;;8.55;;
31734;SDS011;18313;48.518;9.124;2022-12-07T18:30:21;16.10;;;8.77;;
31734;SDS011;18313;48.518;9.124;2022-12-07T18:39:00;11.35;;;6.60;;
31734;SDS011;18313;48.518;9.124;2022-12-07T18:41:48;11.02;;;6.13;;
31734;SDS011;18313;48.518;9.124;2022-12-07T18:44:34;11.45;;;6.00;;
31734;SDS011;18313;48.518;9.124;2022-12-07T18:47:19;10.52;;;5.63;;
31734;SDS011;18313;48.518;9.124;2022-12-07T18:50:05;12.48;;;6.50;;
31734;SDS011;18313;48.518;9.124;2022-12-07T18:52:51;12.15;;;6.82;;
31734;SDS011;18313;48.518;9.124;2022-12-07T18:55:37;10.65;;;6.65;;